Terminal Aerodrome Forecast
Issued by NWS Wilmington, OH

Current Version | Previous Version | Text Only | Print | Product List | Glossary Off
Versions: 1 2 3 4 5 6 7 8 9 10 11 12 13 14 15 16 17 18 19

226
FTUS41 KILN 221722
TAFDAY
TAF
KDAY 221722Z 2218/2318 33004KT P6SM SCT040
     FM230000 VRB03KT P6SM SKC
     FM231400 17006KT P6SM FEW040 SCT250=

USA.gov is the U.S. government's official web portal to all federal, state and local government web resources and services.